createdAt,value
2016-12-21T00:00:55.865Z,0
2016-12-21T00:01:55.841Z,0
2016-12-21T00:02:55.823Z,0
2016-12-21T00:03:55.806Z,0
2016-12-21T00:04:55.782Z,0
2016-12-21T00:05:55.765Z,0
2016-12-21T00:06:55.743Z,0
2016-12-21T00:07:55.726Z,0
2016-12-21T00:08:55.707Z,0
2016-12-21T00:09:55.690Z,0
2016-12-21T00:10:55.678Z,0
2016-12-21T00:11:55.659Z,0
2016-12-21T00:12:55.634Z,0
2016-12-21T00:13:55.609Z,0
2016-12-21T00:14:55.595Z,0
2016-12-21T00:15:55.572Z,0
2016-12-21T00:16:55.557Z,0
2016-12-21T00:17:55.537Z,0
2016-12-21T00:18:55.514Z,0
2016-12-21T00:19:55.498Z,0
2016-12-21T00:20:55.477Z,0
2016-12-21T00:21:55.457Z,0
2016-12-21T00:22:55.955Z,0
2016-12-21T00:23:55.830Z,0
2016-12-21T00:24:55.403Z,0
2016-12-21T00:25:55.949Z,0
2016-12-21T00:26:55.362Z,0
2016-12-21T00:27:56.060Z,0
2016-12-21T00:28:55.330Z,0
2016-12-21T00:29:55.306Z,0
2016-12-21T00:30:55.341Z,0
2016-12-21T00:31:55.272Z,0
2016-12-21T00:32:55.245Z,0
2016-12-21T00:33:55.229Z,0
2016-12-21T00:34:55.210Z,0
2016-12-21T00:35:55.190Z,0
2016-12-21T00:36:55.173Z,0
2016-12-21T00:37:55.152Z,0
2016-12-21T00:38:55.136Z,0
2016-12-21T00:39:55.112Z,0
2016-12-21T00:40:55.098Z,0
2016-12-21T00:41:55.077Z,0
2016-12-21T00:42:55.059Z,0
2016-12-21T00:43:55.034Z,0
2016-12-21T00:44:55.021Z,0
2016-12-21T00:45:55.004Z,0
2016-12-21T00:46:54.978Z,0
2016-12-21T00:47:54.962Z,0
2016-12-21T00:48:54.943Z,0
2016-12-21T00:49:54.932Z,0
2016-12-21T00:50:54.905Z,0
2016-12-21T00:51:54.885Z,0
2016-12-21T00:52:54.870Z,0
2016-12-21T00:53:54.851Z,0
2016-12-21T00:54:55.156Z,0
2016-12-21T00:55:54.809Z,0
2016-12-21T00:56:54.792Z,0
2016-12-21T00:57:54.775Z,0
2016-12-21T00:58:54.788Z,0
2016-12-21T00:59:54.732Z,0
2016-12-21T01:00:54.825Z,0
2016-12-21T01:01:54.696Z,0
2016-12-21T01:02:54.679Z,0
2016-12-21T01:03:54.670Z,0
2016-12-21T01:04:54.640Z,0
2016-12-21T01:05:54.621Z,0
2016-12-21T01:06:54.602Z,0
2016-12-21T01:07:54.581Z,0
2016-12-21T01:08:54.569Z,0
2016-12-21T01:09:54.547Z,0
2016-12-21T01:10:54.529Z,0
2016-12-21T01:11:54.510Z,0
2016-12-21T01:12:54.810Z,0
2016-12-21T01:13:54.589Z,0
2016-12-21T01:14:54.451Z,0
2016-12-21T01:15:54.436Z,0
2016-12-21T01:16:54.827Z,0
2016-12-21T01:17:54.395Z,0
2016-12-21T01:18:54.372Z,0
2016-12-21T01:19:54.782Z,0
2016-12-21T01:20:54.339Z,0
2016-12-21T01:21:54.320Z,0
2016-12-21T01:22:54.741Z,0
2016-12-21T01:23:54.444Z,0
2016-12-21T01:24:55.201Z,0
2016-12-21T01:25:54.243Z,0
2016-12-21T01:26:54.223Z,0
2016-12-21T01:27:55.096Z,0
2016-12-21T01:28:54.183Z,0
2016-12-21T01:29:54.197Z,0
2016-12-21T01:30:54.690Z,0
2016-12-21T01:31:54.131Z,0
2016-12-21T01:32:54.111Z,0
2016-12-21T01:33:54.637Z,0
2016-12-21T01:34:54.070Z,0
2016-12-21T01:35:54.049Z,0
2016-12-21T01:36:54.315Z,0
2016-12-21T01:37:54.017Z,0
2016-12-21T01:38:53.993Z,0
2016-12-21T01:39:54.505Z,0
2016-12-21T01:40:53.959Z,0
2016-12-21T01:41:53.937Z,0
2016-12-21T01:42:54.455Z,0
2016-12-21T01:43:53.903Z,0
2016-12-21T01:44:53.887Z,0
2016-12-21T01:45:54.399Z,0
2016-12-21T01:46:53.838Z,0
2016-12-21T01:47:53.830Z,0
2016-12-21T01:48:54.343Z,0
2016-12-21T01:49:53.789Z,0
2016-12-21T01:50:54.743Z,0
2016-12-21T01:51:53.748Z,0
2016-12-21T01:52:53.733Z,0
2016-12-21T01:53:53.995Z,0
2016-12-21T01:54:53.688Z,0
2016-12-21T01:55:53.699Z,0
2016-12-21T01:56:53.968Z,0
2016-12-21T01:57:53.634Z,0
2016-12-21T01:58:53.615Z,0
2016-12-21T01:59:54.093Z,0
2016-12-21T02:00:53.578Z,0
2016-12-21T02:01:53.965Z,0
2016-12-21T02:02:53.542Z,0
2016-12-21T02:03:53.516Z,0
2016-12-21T02:04:53.640Z,0
2016-12-21T02:05:53.483Z,0
2016-12-21T02:06:53.468Z,0
2016-12-21T02:07:53.553Z,0
2016-12-21T02:08:53.420Z,0
2016-12-21T02:09:53.406Z,0
2016-12-21T02:10:54.235Z,0
2016-12-21T02:11:53.371Z,0
2016-12-21T02:12:53.351Z,0
2016-12-21T02:13:53.668Z,0
2016-12-21T02:14:53.316Z,0
2016-12-21T02:15:53.284Z,0
2016-12-21T02:16:54.058Z,0
2016-12-21T02:17:53.257Z,0
2016-12-21T02:18:53.413Z,0
2016-12-21T02:19:53.220Z,0
2016-12-21T02:20:53.193Z,0
2016-12-21T02:21:53.547Z,0
2016-12-21T02:22:53.160Z,0
2016-12-21T02:23:53.140Z,0
2016-12-21T02:24:53.872Z,0
2016-12-21T02:25:53.095Z,0
2016-12-21T02:26:53.082Z,0
2016-12-21T02:27:53.863Z,0
2016-12-21T02:28:53.046Z,0
2016-12-21T02:29:53.022Z,0
2016-12-21T02:30:53.003Z,0
2016-12-21T02:31:52.982Z,0
2016-12-21T02:32:52.963Z,0
2016-12-21T02:33:52.950Z,0
2016-12-21T02:34:52.934Z,0
2016-12-21T02:35:52.913Z,0
2016-12-21T02:36:53.215Z,0
2016-12-21T02:37:52.888Z,0
2016-12-21T02:38:52.851Z,0
2016-12-21T02:39:52.876Z,0
2016-12-21T02:40:52.817Z,0
2016-12-21T02:41:53.236Z,0
2016-12-21T02:42:52.776Z,0
2016-12-21T02:43:53.691Z,0
2016-12-21T02:44:52.740Z,0
2016-12-21T02:45:52.725Z,0
2016-12-21T02:46:53.854Z,0
2016-12-21T02:47:52.685Z,0
2016-12-21T02:48:52.663Z,0
2016-12-21T02:49:53.688Z,0
2016-12-21T02:50:52.628Z,0
2016-12-21T02:51:52.609Z,0
2016-12-21T02:52:53.565Z,0
2016-12-21T02:53:52.570Z,0
2016-12-21T02:54:52.567Z,0
2016-12-21T02:55:53.473Z,0
2016-12-21T02:56:52.513Z,0
2016-12-21T02:57:53.451Z,0
2016-12-21T02:58:52.476Z,0
2016-12-21T02:59:52.482Z,0
2016-12-21T03:00:53.283Z,0
2016-12-21T03:01:52.419Z,0
2016-12-21T03:02:52.425Z,0
2016-12-21T03:03:53.196Z,0
2016-12-21T03:04:52.362Z,0
2016-12-21T03:05:52.346Z,0
2016-12-21T03:06:52.986Z,0
2016-12-21T03:07:52.311Z,0
2016-12-21T03:08:52.287Z,0
2016-12-21T03:09:52.265Z,0
2016-12-21T03:10:52.250Z,0
2016-12-21T03:11:52.229Z,0
2016-12-21T03:12:52.209Z,0
2016-12-21T03:13:52.189Z,0
2016-12-21T03:14:52.174Z,0
2016-12-21T03:15:52.149Z,0
2016-12-21T03:16:52.134Z,0
2016-12-21T03:17:52.114Z,0
2016-12-21T03:18:52.090Z,0
2016-12-21T03:19:52.075Z,0
2016-12-21T03:20:52.054Z,0
2016-12-21T03:21:52.034Z,0
2016-12-21T03:22:52.018Z,0
2016-12-21T03:23:51.996Z,0
2016-12-21T03:24:51.984Z,0
2016-12-21T03:25:51.959Z,0
2016-12-21T03:26:51.938Z,0
2016-12-21T03:27:51.918Z,0
2016-12-21T03:28:51.903Z,0
2016-12-21T03:29:51.885Z,0
2016-12-21T03:30:51.861Z,0
2016-12-21T03:31:51.852Z,0
2016-12-21T03:32:51.831Z,0
2016-12-21T03:33:51.805Z,0
2016-12-21T03:34:51.820Z,0
2016-12-21T03:35:51.770Z,0
2016-12-21T03:36:51.749Z,0
2016-12-21T03:37:51.732Z,0
2016-12-21T03:38:51.713Z,0
2016-12-21T03:39:51.691Z,0
2016-12-21T03:40:51.671Z,0
2016-12-21T03:41:51.652Z,0
2016-12-21T03:42:51.667Z,0
2016-12-21T03:43:51.615Z,0
2016-12-21T03:44:51.598Z,0
2016-12-21T03:45:51.578Z,0
2016-12-21T03:46:51.560Z,0
2016-12-21T03:47:51.540Z,0
2016-12-21T03:48:51.526Z,0
2016-12-21T03:49:51.499Z,0
2016-12-21T03:50:51.480Z,0
2016-12-21T03:51:51.463Z,0
2016-12-21T03:52:51.447Z,0
2016-12-21T03:53:51.427Z,0
2016-12-21T03:54:51.407Z,0
2016-12-21T03:55:51.389Z,0
2016-12-21T03:56:51.397Z,0
2016-12-21T03:57:51.354Z,0
2016-12-21T03:58:51.332Z,0
2016-12-21T03:59:51.313Z,0
2016-12-21T04:00:51.297Z,0
2016-12-21T04:01:51.274Z,0
2016-12-21T04:02:51.254Z,0
2016-12-21T04:03:51.236Z,0
2016-12-21T04:04:51.224Z,0
2016-12-21T04:05:51.197Z,0
2016-12-21T04:06:51.180Z,0
2016-12-21T04:07:51.162Z,0
2016-12-21T04:08:51.142Z,0
2016-12-21T04:09:51.127Z,0
2016-12-21T04:10:51.104Z,0
2016-12-21T04:11:51.089Z,0
2016-12-21T04:12:51.064Z,0
2016-12-21T04:13:51.048Z,0
2016-12-21T04:14:51.027Z,0
2016-12-21T04:15:51.012Z,0
2016-12-21T04:16:50.988Z,0
2016-12-21T04:17:50.970Z,0
2016-12-21T04:18:50.952Z,0
2016-12-21T04:19:50.934Z,0
2016-12-21T04:20:50.919Z,0
2016-12-21T04:21:50.899Z,0
2016-12-21T04:22:50.880Z,0
2016-12-21T04:23:50.857Z,0
2016-12-21T04:24:50.879Z,0
2016-12-21T04:25:50.823Z,0
2016-12-21T04:26:50.829Z,0
2016-12-21T04:27:50.787Z,0
2016-12-21T04:28:50.768Z,0
2016-12-21T04:29:50.773Z,0
2016-12-21T04:30:50.735Z,0
2016-12-21T04:31:50.708Z,0
2016-12-21T04:32:50.692Z,0
2016-12-21T04:33:50.672Z,0
2016-12-21T04:34:50.653Z,0
2016-12-21T04:35:50.629Z,0
2016-12-21T04:36:50.616Z,0
2016-12-21T04:37:50.594Z,0
2016-12-21T04:38:50.576Z,0
2016-12-21T04:39:50.560Z,0
2016-12-21T04:40:50.568Z,0
2016-12-21T04:41:50.516Z,0
2016-12-21T04:42:50.500Z,0
2016-12-21T04:43:50.475Z,0
2016-12-21T04:44:50.461Z,0
2016-12-21T04:45:50.472Z,0
2016-12-21T04:46:50.419Z,0
2016-12-21T04:47:50.432Z,0
2016-12-21T04:48:50.387Z,0
2016-12-21T04:49:50.365Z,0
2016-12-21T04:50:50.349Z,0
2016-12-21T04:51:50.323Z,0
2016-12-21T04:52:50.308Z,0
2016-12-21T04:53:50.284Z,0
2016-12-21T04:54:50.267Z,0
2016-12-21T04:55:50.250Z,0
2016-12-21T04:56:50.236Z,0
2016-12-21T04:57:50.214Z,0
2016-12-21T04:58:50.194Z,0
2016-12-21T04:59:50.175Z,0
2016-12-21T05:00:50.155Z,0
2016-12-21T05:01:50.139Z,0
2016-12-21T05:02:50.121Z,0
2016-12-21T05:03:50.103Z,0
2016-12-21T05:04:50.078Z,0
2016-12-21T05:05:50.382Z,0
2016-12-21T05:06:50.042Z,0
2016-12-21T05:07:50.022Z,0
2016-12-21T05:08:50.005Z,0
2016-12-21T05:09:49.991Z,0
2016-12-21T05:10:49.965Z,0
2016-12-21T05:11:49.943Z,0
2016-12-21T05:12:49.931Z,0
2016-12-21T05:13:49.911Z,0
2016-12-21T05:14:49.889Z,0
2016-12-21T05:15:49.875Z,0
2016-12-21T05:16:49.879Z,0
2016-12-21T05:17:49.833Z,0
2016-12-21T05:18:49.816Z,0
2016-12-21T05:19:49.802Z,0
2016-12-21T05:20:49.776Z,0
2016-12-21T05:21:49.756Z,0
2016-12-21T05:22:49.736Z,0
2016-12-21T05:23:49.719Z,0
2016-12-21T05:24:49.696Z,0
2016-12-21T05:25:49.681Z,0
2016-12-21T05:26:49.661Z,0
2016-12-21T05:27:49.639Z,0
2016-12-21T05:28:49.621Z,0
2016-12-21T05:29:49.606Z,0
2016-12-21T05:30:49.587Z,0
2016-12-21T05:31:49.588Z,0
2016-12-21T05:32:49.583Z,0
2016-12-21T05:33:49.528Z,0
2016-12-21T05:34:49.505Z,0
2016-12-21T05:35:49.803Z,0
2016-12-21T05:36:49.467Z,0
2016-12-21T05:37:49.453Z,0
2016-12-21T05:38:49.434Z,0
2016-12-21T05:39:49.414Z,0
2016-12-21T05:40:49.390Z,0
2016-12-21T05:41:49.372Z,0
2016-12-21T05:42:49.354Z,0
2016-12-21T05:43:49.342Z,0
2016-12-21T05:44:49.315Z,0
2016-12-21T05:45:49.299Z,0
2016-12-21T05:46:49.281Z,0
2016-12-21T05:47:49.254Z,0
2016-12-21T05:48:49.241Z,0
2016-12-21T05:49:49.220Z,0
2016-12-21T05:50:49.199Z,0
2016-12-21T05:51:49.182Z,0
2016-12-21T05:52:49.157Z,0
2016-12-21T05:53:49.142Z,0
2016-12-21T05:54:49.123Z,0
2016-12-21T05:55:49.103Z,0
2016-12-21T05:56:49.096Z,0
2016-12-21T05:57:49.074Z,0
2016-12-21T05:58:49.047Z,0
2016-12-21T05:59:49.031Z,0
2016-12-21T06:00:49.013Z,0
2016-12-21T06:01:48.994Z,0
2016-12-21T06:02:48.970Z,0
2016-12-21T06:03:48.950Z,0
2016-12-21T06:04:48.934Z,0
2016-12-21T06:05:48.914Z,0
2016-12-21T06:06:48.898Z,0
2016-12-21T06:07:48.876Z,0
2016-12-21T06:08:48.862Z,0
2016-12-21T06:09:48.837Z,0
2016-12-21T06:10:48.819Z,0
2016-12-21T06:11:48.797Z,0
2016-12-21T06:12:48.777Z,0
2016-12-21T06:13:48.759Z,0
2016-12-21T06:14:48.743Z,0
2016-12-21T06:15:48.753Z,0
2016-12-21T06:16:48.729Z,0
2016-12-21T06:17:48.680Z,0
2016-12-21T06:18:48.664Z,0
2016-12-21T06:19:48.672Z,0
2016-12-21T06:20:48.627Z,0
2016-12-21T06:21:48.608Z,0
2016-12-21T06:22:48.585Z,0
2016-12-21T06:23:48.563Z,0
2016-12-21T06:24:48.544Z,0
2016-12-21T06:25:48.526Z,0
2016-12-21T06:26:48.508Z,0
2016-12-21T06:27:48.488Z,0
2016-12-21T06:28:48.471Z,0
2016-12-21T06:29:48.450Z,0
2016-12-21T06:30:48.431Z,0
2016-12-21T06:31:48.415Z,4
2016-12-21T06:32:48.389Z,4
2016-12-21T06:33:48.401Z,0
2016-12-21T06:34:48.355Z,0
2016-12-21T06:35:48.345Z,4
2016-12-21T06:36:48.315Z,0
2016-12-21T06:37:48.291Z,4
2016-12-21T06:38:48.272Z,4
2016-12-21T06:39:48.255Z,8
2016-12-21T06:40:48.237Z,8
2016-12-21T06:41:48.221Z,8
2016-12-21T06:42:48.198Z,8
2016-12-21T06:43:48.178Z,12
2016-12-21T06:44:48.166Z,12
2016-12-21T06:45:48.140Z,16
2016-12-21T06:46:48.119Z,16
2016-12-21T06:47:48.104Z,20
2016-12-21T06:48:48.084Z,24
2016-12-21T06:49:48.065Z,28
2016-12-21T06:50:48.039Z,32
2016-12-21T06:51:48.027Z,36
2016-12-21T06:52:48.006Z,40
2016-12-21T06:53:47.987Z,48
2016-12-21T06:54:47.970Z,52
2016-12-21T06:55:47.951Z,56
2016-12-21T06:56:47.934Z,68
2016-12-21T06:57:47.907Z,76
2016-12-21T06:58:47.892Z,84
2016-12-21T06:59:47.873Z,92
2016-12-21T07:00:47.852Z,104
2016-12-21T07:01:47.833Z,116
2016-12-21T07:02:47.816Z,128
2016-12-21T07:03:48.106Z,140
2016-12-21T07:04:47.778Z,152
2016-12-21T07:05:47.754Z,168
2016-12-21T07:06:47.738Z,180
2016-12-21T07:07:47.718Z,196
2016-12-21T07:08:47.697Z,216
2016-12-21T07:09:47.679Z,232
2016-12-21T07:10:47.656Z,248
2016-12-21T07:11:47.638Z,268
2016-12-21T07:12:47.617Z,284
2016-12-21T07:13:47.599Z,304
2016-12-21T07:14:47.581Z,324
2016-12-21T07:15:47.560Z,344
2016-12-21T07:16:47.540Z,364
2016-12-21T07:17:47.526Z,388
2016-12-21T07:18:47.506Z,404
2016-12-21T07:19:47.489Z,428
2016-12-21T07:20:47.467Z,452
2016-12-21T07:21:47.447Z,472
2016-12-21T07:22:47.459Z,496
2016-12-21T07:23:47.724Z,520
2016-12-21T07:24:47.389Z,544
2016-12-21T07:25:47.373Z,568
2016-12-21T07:26:47.351Z,592
2016-12-21T07:27:47.335Z,620
2016-12-21T07:28:47.308Z,640
2016-12-21T07:29:47.294Z,660
2016-12-21T07:30:47.273Z,684
2016-12-21T07:31:47.251Z,704
2016-12-21T07:32:47.236Z,724
2016-12-21T07:33:47.215Z,744
2016-12-21T07:34:47.204Z,764
2016-12-21T07:35:47.176Z,788
2016-12-21T07:36:47.152Z,808
2016-12-21T07:37:47.147Z,828
2016-12-21T07:38:47.115Z,852
2016-12-21T07:39:47.108Z,876
2016-12-21T07:40:47.080Z,892
2016-12-21T07:41:47.062Z,916
2016-12-21T07:42:47.041Z,940
2016-12-21T07:43:47.026Z,964
2016-12-21T07:44:47.002Z,984
2016-12-21T07:45:46.984Z,1000
2016-12-21T07:46:46.964Z,1020
2016-12-21T07:47:46.945Z,1036
2016-12-21T07:48:46.923Z,1048
2016-12-21T07:49:46.908Z,1064
2016-12-21T07:50:46.890Z,1084
2016-12-21T07:51:46.870Z,1104
2016-12-21T07:52:46.853Z,1124
2016-12-21T07:53:46.833Z,1144
2016-12-21T07:54:46.816Z,1160
2016-12-21T07:55:46.794Z,1176
2016-12-21T07:56:46.807Z,1188
2016-12-21T07:57:46.756Z,1204
2016-12-21T07:58:46.745Z,1220
2016-12-21T07:59:46.716Z,1240
2016-12-21T08:00:46.702Z,1256
2016-12-21T08:01:46.679Z,1272
2016-12-21T08:02:46.971Z,1292
2016-12-21T08:03:46.643Z,1304
2016-12-21T08:04:46.632Z,1324
2016-12-21T08:05:46.604Z,1340
2016-12-21T08:06:46.582Z,1352
2016-12-21T08:07:46.564Z,1368
2016-12-21T08:08:46.547Z,1384
2016-12-21T08:09:46.527Z,1396
2016-12-21T08:10:46.544Z,1404
2016-12-21T08:11:46.494Z,1416
2016-12-21T08:12:46.472Z,1428
2016-12-21T08:13:46.453Z,1440
2016-12-21T08:14:46.434Z,1456
2016-12-21T08:15:46.413Z,1468
2016-12-21T08:16:46.397Z,1476
2016-12-21T08:17:46.377Z,1488
2016-12-21T08:18:46.356Z,1496
2016-12-21T08:19:46.335Z,1508
2016-12-21T08:20:46.320Z,1516
2016-12-21T08:21:46.301Z,1528
2016-12-21T08:22:46.283Z,1532
2016-12-21T08:23:46.267Z,1540
2016-12-21T08:24:46.246Z,1548
2016-12-21T08:25:46.231Z,1560
2016-12-21T08:26:46.205Z,1568
2016-12-21T08:27:46.188Z,1580
2016-12-21T08:28:46.168Z,1592
2016-12-21T08:29:46.156Z,1600
2016-12-21T08:30:46.128Z,1608
2016-12-21T08:31:46.110Z,1612
2016-12-21T08:32:46.090Z,1620
2016-12-21T08:33:46.073Z,1624
2016-12-21T08:34:46.055Z,1632
2016-12-21T08:35:46.035Z,1636
2016-12-21T08:36:46.019Z,1640
2016-12-21T08:37:45.997Z,1648
2016-12-21T08:38:45.979Z,1652
2016-12-21T08:39:45.961Z,1664
2016-12-21T08:40:45.942Z,1676
2016-12-21T08:41:45.923Z,1684
2016-12-21T08:42:45.903Z,1692
2016-12-21T08:43:46.199Z,1696
2016-12-21T08:44:45.863Z,1700
2016-12-21T08:45:45.849Z,1708
2016-12-21T08:46:45.826Z,1708
2016-12-21T08:47:45.807Z,1708
2016-12-21T08:48:45.793Z,1716
2016-12-21T08:49:45.771Z,1724
2016-12-21T08:50:45.759Z,1728
2016-12-21T08:51:45.730Z,1740
2016-12-21T08:52:45.714Z,1752
2016-12-21T08:53:45.695Z,1764
2016-12-21T08:54:45.991Z,1772
2016-12-21T08:55:45.656Z,1776
2016-12-21T08:56:45.636Z,1776
2016-12-21T08:57:45.663Z,1788
2016-12-21T08:58:45.599Z,1792
2016-12-21T08:59:45.586Z,1800
2016-12-21T09:00:45.591Z,1808
2016-12-21T09:01:45.541Z,1808
2016-12-21T09:02:45.523Z,1816
2016-12-21T09:03:45.819Z,1820
2016-12-21T09:04:45.493Z,1824
2016-12-21T09:05:45.465Z,1824
2016-12-21T09:06:45.454Z,1836
2016-12-21T09:07:45.455Z,1840
2016-12-21T09:08:45.410Z,1844
2016-12-21T09:09:45.394Z,1852
2016-12-21T09:10:45.376Z,1860
2016-12-21T09:11:45.383Z,1868
2016-12-21T09:12:45.647Z,1876
2016-12-21T09:13:45.314Z,1880
2016-12-21T09:14:45.297Z,1884
2016-12-21T09:15:45.277Z,1880
2016-12-21T09:16:45.260Z,1884
2016-12-21T09:17:45.242Z,1888
2016-12-21T09:18:45.220Z,1888
2016-12-21T09:19:45.202Z,1888
2016-12-21T09:20:45.184Z,1888
2016-12-21T09:21:45.165Z,1892
2016-12-21T09:22:45.154Z,1892
2016-12-21T09:23:45.127Z,1900
2016-12-21T09:24:45.111Z,1904
2016-12-21T09:25:45.097Z,1908
2016-12-21T09:26:45.072Z,1908
2016-12-21T09:27:45.054Z,1912
2016-12-21T09:28:45.036Z,1912
2016-12-21T09:29:45.014Z,1916
2016-12-21T09:30:44.998Z,1916
2016-12-21T09:31:44.983Z,1920
2016-12-21T09:32:44.960Z,1916
2016-12-21T09:33:44.944Z,1916
2016-12-21T09:34:44.959Z,1916
2016-12-21T09:35:44.933Z,1916
2016-12-21T09:36:44.888Z,1920
2016-12-21T09:37:44.871Z,1920
2016-12-21T09:38:44.851Z,1920
2016-12-21T09:39:44.829Z,1916
2016-12-21T09:40:44.812Z,1916
2016-12-21T09:41:44.806Z,1916
2016-12-21T09:42:44.774Z,1924
2016-12-21T09:43:44.760Z,1924
2016-12-21T09:44:45.068Z,1924
2016-12-21T09:45:44.720Z,1928
2016-12-21T09:46:44.703Z,1936
2016-12-21T09:47:44.684Z,1940
2016-12-21T09:48:44.669Z,1948
2016-12-21T09:49:44.647Z,1948
2016-12-21T09:50:44.643Z,1952
2016-12-21T09:51:44.614Z,1952
2016-12-21T09:52:44.600Z,1960
2016-12-21T09:53:44.576Z,1968
2016-12-21T09:54:44.557Z,1972
2016-12-21T09:55:44.538Z,1972
2016-12-21T09:56:44.526Z,1980
2016-12-21T09:57:44.534Z,1984
2016-12-21T09:58:44.489Z,1988
2016-12-21T09:59:44.465Z,1996
2016-12-21T10:00:44.450Z,2000
2016-12-21T10:01:44.431Z,2008
2016-12-21T10:02:44.415Z,2016
2016-12-21T10:03:44.394Z,2028
2016-12-21T10:04:44.384Z,2036
2016-12-21T10:05:44.355Z,2044
2016-12-21T10:06:44.343Z,2044
2016-12-21T10:07:44.322Z,2040
2016-12-21T10:08:44.301Z,2040
2016-12-21T10:09:44.290Z,2052
2016-12-21T10:10:44.265Z,2064
2016-12-21T10:11:44.249Z,2076
2016-12-21T10:12:44.234Z,2080
2016-12-21T10:13:44.209Z,2080
2016-12-21T10:14:44.200Z,2084
2016-12-21T10:15:44.180Z,2092
2016-12-21T10:16:44.158Z,2104
2016-12-21T10:17:44.162Z,2116
2016-12-21T10:18:44.123Z,2128
2016-12-21T10:19:44.105Z,2140
2016-12-21T10:20:44.084Z,2144
2016-12-21T10:21:44.073Z,2144
2016-12-21T10:22:44.057Z,2152
2016-12-21T10:23:44.034Z,2160
2016-12-21T10:24:44.011Z,2164
2016-12-21T10:25:43.997Z,2180
2016-12-21T10:26:43.979Z,2188
2016-12-21T10:27:43.961Z,2192
2016-12-21T10:28:43.948Z,2196
2016-12-21T10:29:43.925Z,2196
2016-12-21T10:30:43.909Z,2196
2016-12-21T10:31:43.895Z,2200
2016-12-21T10:32:43.875Z,2200
2016-12-21T10:33:43.856Z,2200
2016-12-21T10:34:43.842Z,2196
2016-12-21T10:35:43.821Z,2196
2016-12-21T10:36:43.812Z,2196
2016-12-21T10:37:43.783Z,2192
2016-12-21T10:38:43.768Z,2192
2016-12-21T10:39:43.747Z,2196
2016-12-21T10:40:43.732Z,2204
2016-12-21T10:41:44.030Z,2208
2016-12-21T10:42:43.695Z,2192
2016-12-21T10:43:43.681Z,2208
2016-12-21T10:44:43.660Z,2204
2016-12-21T10:45:43.645Z,2208
2016-12-21T10:46:43.633Z,2208
2016-12-21T10:47:43.608Z,2212
2016-12-21T10:48:43.590Z,2212
2016-12-21T10:49:43.572Z,2212
2016-12-21T10:50:43.557Z,2212
2016-12-21T10:51:43.538Z,2212
2016-12-21T10:52:43.519Z,2220
2016-12-21T10:53:43.505Z,2224
2016-12-21T10:54:43.481Z,2228
2016-12-21T10:55:43.478Z,2228
2016-12-21T10:56:43.449Z,2236
2016-12-21T10:57:43.436Z,2236
2016-12-21T10:58:43.415Z,2244
2016-12-21T10:59:43.429Z,2240
2016-12-21T11:00:43.379Z,2240
2016-12-21T11:01:43.362Z,2244
2016-12-21T11:02:43.340Z,2244
2016-12-21T11:03:43.328Z,2248
2016-12-21T11:04:43.308Z,2244
2016-12-21T11:05:43.288Z,2256
2016-12-21T11:06:43.277Z,2264
2016-12-21T11:07:43.261Z,2272
2016-12-21T11:08:43.235Z,2272
2016-12-21T11:09:43.223Z,2268
2016-12-21T11:10:43.203Z,2268
2016-12-21T11:11:43.188Z,2256
2016-12-21T11:12:43.171Z,2248
2016-12-21T11:13:43.152Z,2244
2016-12-21T11:14:43.133Z,2240
2016-12-21T11:15:43.116Z,2236
2016-12-21T11:16:43.102Z,2232
2016-12-21T11:17:43.082Z,2224
2016-12-21T11:18:43.063Z,2216
2016-12-21T11:19:43.046Z,2204
2016-12-21T11:20:43.030Z,2196
2016-12-21T11:21:43.018Z,2188
2016-12-21T11:22:42.997Z,2184
2016-12-21T11:23:42.980Z,2176
2016-12-21T11:24:42.959Z,2168
2016-12-21T11:25:42.946Z,2168
2016-12-21T11:26:42.928Z,2160
2016-12-21T11:27:42.908Z,2156
2016-12-21T11:28:42.899Z,2152
2016-12-21T11:29:42.874Z,2152
2016-12-21T11:30:42.860Z,2156
2016-12-21T11:31:43.155Z,2152
2016-12-21T11:32:42.823Z,2152
2016-12-21T11:33:42.806Z,2148
2016-12-21T11:34:42.799Z,2144
2016-12-21T11:35:42.770Z,2148
2016-12-21T11:36:42.757Z,2148
2016-12-21T11:37:42.739Z,2144
2016-12-21T11:38:42.721Z,2140
2016-12-21T11:39:42.706Z,2140
2016-12-21T11:40:42.687Z,2132
2016-12-21T11:41:42.667Z,2132
2016-12-21T11:42:42.653Z,2124
2016-12-21T11:43:42.635Z,2120
2016-12-21T11:44:42.624Z,2116
2016-12-21T11:45:42.945Z,2112
2016-12-21T11:46:42.583Z,2104
2016-12-21T11:47:42.569Z,2104
2016-12-21T11:48:42.863Z,2100
2016-12-21T11:49:42.533Z,2096
2016-12-21T11:50:42.516Z,2096
2016-12-21T11:51:42.502Z,2096
2016-12-21T11:52:42.509Z,2092
2016-12-21T11:53:42.480Z,2092
2016-12-21T11:54:42.446Z,2092
2016-12-21T11:55:42.461Z,2088
2016-12-21T11:56:42.416Z,2084
2016-12-21T11:57:42.393Z,2088
2016-12-21T11:58:42.384Z,2084
2016-12-21T11:59:42.367Z,2084
2016-12-21T12:00:42.349Z,2080
2016-12-21T12:01:42.328Z,2072
2016-12-21T12:02:42.314Z,2068
2016-12-21T12:03:42.300Z,2068
2016-12-21T12:04:42.286Z,2068
2016-12-21T12:05:42.261Z,2060
2016-12-21T12:06:42.248Z,2056
2016-12-21T12:07:42.225Z,2056
2016-12-21T12:08:42.209Z,2052
2016-12-21T12:09:42.191Z,2048
2016-12-21T12:10:42.201Z,2048
2016-12-21T12:11:42.158Z,2044
2016-12-21T12:12:42.141Z,2036
2016-12-21T12:13:42.122Z,2036
2016-12-21T12:14:42.110Z,2028
2016-12-21T12:15:42.087Z,2028
2016-12-21T12:16:42.075Z,2028
2016-12-21T12:17:42.056Z,2020
2016-12-21T12:18:42.076Z,2020
2016-12-21T12:19:42.019Z,2012
2016-12-21T12:20:42.007Z,2012
2016-12-21T12:21:41.987Z,2008
2016-12-21T12:22:42.004Z,2004
2016-12-21T12:23:41.953Z,2000
2016-12-21T12:24:41.939Z,1992
2016-12-21T12:25:41.924Z,1988
2016-12-21T12:26:41.902Z,1984
2016-12-21T12:27:41.885Z,1976
2016-12-21T12:28:41.867Z,1972
2016-12-21T12:29:42.166Z,1968
2016-12-21T12:30:41.831Z,1964
2016-12-21T12:31:41.814Z,1964
2016-12-21T12:32:41.805Z,1956
2016-12-21T12:33:41.783Z,1952
2016-12-21T12:34:41.767Z,1944
2016-12-21T12:35:41.746Z,1944
2016-12-21T12:36:41.730Z,1940
2016-12-21T12:37:42.028Z,1932
2016-12-21T12:38:41.698Z,1932
2016-12-21T12:39:41.677Z,1928
2016-12-21T12:40:41.659Z,1920
2016-12-21T12:41:41.646Z,1916
2016-12-21T12:42:41.629Z,1908
2016-12-21T12:43:41.617Z,1908
2016-12-21T12:44:41.597Z,1900
2016-12-21T12:45:41.584Z,1896
2016-12-21T12:46:41.569Z,1892
2016-12-21T12:47:41.560Z,1884
2016-12-21T12:48:41.523Z,1880
2016-12-21T12:49:41.509Z,1880
2016-12-21T12:50:41.489Z,1880
2016-12-21T12:51:41.471Z,1876
2016-12-21T12:52:41.455Z,1872
2016-12-21T12:53:41.442Z,1868
2016-12-21T12:54:41.422Z,1864
2016-12-21T12:55:41.404Z,1860
2016-12-21T12:56:41.386Z,1860
2016-12-21T12:57:41.416Z,1856
2016-12-21T12:58:41.355Z,1856
2016-12-21T12:59:41.334Z,1852
2016-12-21T13:00:41.349Z,1848
2016-12-21T13:01:41.313Z,1844
2016-12-21T13:02:41.280Z,1836
2016-12-21T13:03:41.267Z,1832
2016-12-21T13:04:41.258Z,1832
2016-12-21T13:05:41.233Z,1828
2016-12-21T13:06:41.227Z,1820
2016-12-21T13:07:41.196Z,1812
2016-12-21T13:08:41.183Z,1808
2016-12-21T13:09:41.165Z,1804
2016-12-21T13:10:41.151Z,1800
2016-12-21T13:11:41.126Z,1796
2016-12-21T13:12:41.117Z,1788
2016-12-21T13:13:41.094Z,1784
2016-12-21T13:14:41.074Z,1784
2016-12-21T13:15:41.060Z,1776
2016-12-21T13:16:41.042Z,1772
2016-12-21T13:17:41.023Z,1768
2016-12-21T13:18:41.007Z,1760
2016-12-21T13:19:40.996Z,1756
2016-12-21T13:20:40.970Z,1744
2016-12-21T13:21:40.958Z,1740
2016-12-21T13:22:40.937Z,1736
2016-12-21T13:23:40.923Z,1728
2016-12-21T13:24:40.905Z,1724
2016-12-21T13:25:40.886Z,1720
2016-12-21T13:26:40.870Z,1712
2016-12-21T13:27:40.862Z,1704
2016-12-21T13:28:40.836Z,1700
2016-12-21T13:29:40.826Z,1692
2016-12-21T13:30:40.805Z,1684
2016-12-21T13:31:40.783Z,1680
2016-12-21T13:32:40.796Z,1672
2016-12-21T13:33:40.752Z,1660
2016-12-21T13:34:40.735Z,1656
2016-12-21T13:35:40.714Z,1648
2016-12-21T13:36:40.706Z,1644
2016-12-21T13:37:40.688Z,1636
2016-12-21T13:38:40.667Z,1628
2016-12-21T13:39:40.646Z,1620
2016-12-21T13:40:40.628Z,1612
2016-12-21T13:41:40.642Z,1600
2016-12-21T13:42:40.630Z,1596
2016-12-21T13:43:40.585Z,1584
2016-12-21T13:44:40.561Z,1572
2016-12-21T13:45:40.545Z,1564
2016-12-21T13:46:40.529Z,1556
2016-12-21T13:47:40.507Z,1548
2016-12-21T13:48:40.493Z,1536
2016-12-21T13:49:40.480Z,1524
2016-12-21T13:50:40.459Z,1516
2016-12-21T13:51:40.441Z,1508
2016-12-21T13:52:40.426Z,1496
2016-12-21T13:53:40.406Z,1488
2016-12-21T13:54:40.387Z,1472
2016-12-21T13:55:40.371Z,1460
2016-12-21T13:56:40.354Z,1452
2016-12-21T13:57:40.335Z,1444
2016-12-21T13:58:40.325Z,1432
2016-12-21T13:59:40.304Z,1420
2016-12-21T14:00:40.285Z,1412
2016-12-21T14:01:40.274Z,1400